Terminal Aerodrome Forecast
Issued by NWS

Home | Current Version | Previous Version | Text Only | Print | Product List | Glossary On
Versions: 1 2 3 4 5 6 7 8 9 10 11 12 13 14 15 16
000
FTUS44 KBMX 211700
TAFTCL
TAF
KTCL 211724Z 2118/2218 25007KT P6SM SCT050
     FM220400 34005KT P6SM SCT025 BKN040
     FM221100 01006KT P6SM FEW250=

USA.gov is the U.S. government's official web portal to all federal, state and local government web resources and services.